createdAt,value
2022-10-13T00:01:12.450Z,6.90
2022-10-13T00:03:42.555Z,7.00
2022-10-13T00:06:10.876Z,7.00
2022-10-13T00:08:38.540Z,7.00
2022-10-13T00:11:19.110Z,7.00
2022-10-13T00:13:46.962Z,7.00
2022-10-13T00:16:16.088Z,6.90
2022-10-13T00:18:43.982Z,6.90
2022-10-13T00:21:14.112Z,6.90
2022-10-13T00:23:41.765Z,6.80
2022-10-13T00:26:11.437Z,6.70
2022-10-13T00:28:39.068Z,6.70
2022-10-13T00:31:17.613Z,6.60
2022-10-13T00:33:44.823Z,6.70
2022-10-13T00:36:11.841Z,6.80
2022-10-13T00:38:38.925Z,6.80
2022-10-13T00:41:05.877Z,6.90
2022-10-13T00:43:57.551Z,6.80
2022-10-13T00:46:28.042Z,6.70
2022-10-13T00:48:56.844Z,6.70
2022-10-13T00:51:28.720Z,6.70
2022-10-13T00:53:56.715Z,6.70
2022-10-13T00:56:26.615Z,6.60
2022-10-13T00:58:55.211Z,6.50
2022-10-13T01:01:22.411Z,6.40
2022-10-13T01:03:49.145Z,6.40
2022-10-13T01:06:19.803Z,6.30
2022-10-13T01:08:49.384Z,6.20
2022-10-13T01:11:40.597Z,6.10
2022-10-13T01:14:13.676Z,6.10
2022-10-13T01:16:47.521Z,6.00
2022-10-13T01:20:08.128Z,5.90
2022-10-13T01:22:53.952Z,5.80
2022-10-13T01:25:52.808Z,5.70
2022-10-13T01:28:19.569Z,5.60
2022-10-13T01:30:52.945Z,5.50
2022-10-13T01:33:30.427Z,5.40
2022-10-13T01:36:18.195Z,5.40
2022-10-13T01:39:05.808Z,5.40
2022-10-13T01:41:37.682Z,5.30
2022-10-13T01:44:32.567Z,5.30
2022-10-13T01:47:02.215Z,5.20
2022-10-13T01:49:34.658Z,5.20
2022-10-13T01:52:11.172Z,5.20
2022-10-13T01:54:38.094Z,5.30
2022-10-13T01:57:05.349Z,5.40
2022-10-13T01:59:36.454Z,5.50
2022-10-13T02:02:16.142Z,5.60
2022-10-13T02:04:50.805Z,5.70
2022-10-13T02:07:20.350Z,5.80
2022-10-13T02:10:11.667Z,5.80
2022-10-13T02:13:00.540Z,5.90
2022-10-13T02:15:59.821Z,6.10
2022-10-13T02:18:33.043Z,6.20
2022-10-13T02:21:00.959Z,6.20
2022-10-13T02:23:29.003Z,6.30
2022-10-13T02:25:59.198Z,6.40
2022-10-13T02:28:27.346Z,6.40
2022-10-13T02:30:54.466Z,6.40
2022-10-13T02:33:21.753Z,6.40
2022-10-13T02:35:48.777Z,6.40
2022-10-13T02:38:16.020Z,6.50
2022-10-13T02:40:42.874Z,6.60
2022-10-13T02:43:09.841Z,6.60
2022-10-13T02:45:36.588Z,6.70
2022-10-13T02:48:05.267Z,6.70
2022-10-13T02:50:32.135Z,6.70
2022-10-13T02:53:01.635Z,6.70
2022-10-13T02:55:28.666Z,6.80
2022-10-13T02:57:55.460Z,6.80
2022-10-13T03:00:24.984Z,6.90
2022-10-13T03:02:51.830Z,6.90
2022-10-13T03:05:18.650Z,7.00
2022-10-13T03:07:45.621Z,7.10
2022-10-13T03:10:12.999Z,7.30
2022-10-13T03:12:39.849Z,7.50
2022-10-13T03:15:09.535Z,7.80
2022-10-13T03:17:36.817Z,8.40
2022-10-13T03:20:06.880Z,8.80
2022-10-13T03:22:34.044Z,8.90
2022-10-13T03:25:00.974Z,9.10
2022-10-13T03:27:28.215Z,9.10
2022-10-13T03:29:55.029Z,9.20
2022-10-13T03:32:24.417Z,9.30
2022-10-13T03:34:52.217Z,9.30
2022-10-13T03:37:19.056Z,9.30
2022-10-13T03:39:48.403Z,9.30
2022-10-13T03:42:15.255Z,9.30
2022-10-13T03:44:42.057Z,9.30
2022-10-13T03:47:11.389Z,9.40
2022-10-13T03:49:39.127Z,9.40
2022-10-13T03:52:06.270Z,9.40
2022-10-13T03:54:33.410Z,9.40
2022-10-13T03:57:00.348Z,9.40
2022-10-13T03:59:36.375Z,9.40
2022-10-13T04:02:03.865Z,9.40
2022-10-13T04:04:30.691Z,9.40
2022-10-13T04:07:00.141Z,9.40
2022-10-13T04:09:27.501Z,9.40
2022-10-13T04:11:54.250Z,9.40
2022-10-13T04:14:21.185Z,9.40
2022-10-13T04:16:48.371Z,9.40
2022-10-13T04:19:15.905Z,9.30
2022-10-13T04:21:43.960Z,9.30
2022-10-13T04:24:13.531Z,9.30
2022-10-13T04:26:40.610Z,9.20
2022-10-13T04:29:09.499Z,9.20
2022-10-13T04:31:37.774Z,9.10
2022-10-13T04:34:04.880Z,9.00
2022-10-13T04:36:31.851Z,8.90
2022-10-13T04:38:58.649Z,8.70
2022-10-13T04:41:26.052Z,8.60
2022-10-13T04:43:53.878Z,8.50
2022-10-13T04:46:24.732Z,8.40
2022-10-13T04:48:52.624Z,8.20
2022-10-13T04:51:22.583Z,8.10
2022-10-13T04:53:53.958Z,8.00
2022-10-13T04:56:20.725Z,7.90
2022-10-13T04:58:47.599Z,7.80
2022-10-13T05:01:22.209Z,7.70
2022-10-13T05:03:59.300Z,7.70
2022-10-13T05:06:31.281Z,7.70
2022-10-13T05:08:58.300Z,7.80
2022-10-13T05:11:26.739Z,7.90
2022-10-13T05:13:54.399Z,7.90
2022-10-13T05:16:22.429Z,8.00
2022-10-13T05:18:51.265Z,8.00
2022-10-13T05:21:26.833Z,8.10
2022-10-13T05:23:55.945Z,8.20
2022-10-13T05:26:29.035Z,8.40
2022-10-13T05:29:00.150Z,8.80
2022-10-13T05:31:29.362Z,9.10
2022-10-13T05:33:57.341Z,9.20
2022-10-13T05:36:33.551Z,9.20
2022-10-13T05:39:21.425Z,9.30
2022-10-13T05:41:48.488Z,9.30
2022-10-13T05:44:17.579Z,9.30
2022-10-13T05:46:44.731Z,9.30
2022-10-13T05:49:12.022Z,9.40
2022-10-13T05:52:00.962Z,9.40
2022-10-13T05:54:39.238Z,9.40
2022-10-13T05:57:08.106Z,9.40
2022-10-13T05:59:42.116Z,9.40
2022-10-13T06:02:12.571Z,9.50
2022-10-13T06:04:45.635Z,9.50
2022-10-13T06:07:13.160Z,9.60
2022-10-13T06:09:40.840Z,9.60
2022-10-13T06:12:11.996Z,9.70
2022-10-13T06:14:38.813Z,9.70
2022-10-13T06:17:05.565Z,9.70
2022-10-13T06:19:32.728Z,9.70
2022-10-13T06:22:03.458Z,9.70
2022-10-13T06:24:30.658Z,9.80
2022-10-13T06:26:57.957Z,9.80
2022-10-13T06:29:27.700Z,9.90
2022-10-13T06:31:54.752Z,9.90
2022-10-13T06:34:21.536Z,9.90
2022-10-13T06:36:48.548Z,9.90
2022-10-13T06:39:15.298Z,9.90
2022-10-13T06:41:42.031Z,9.90
2022-10-13T06:44:09.105Z,10.10
2022-10-13T06:46:35.816Z,10.10
2022-10-13T06:49:03.028Z,10.10
2022-10-13T06:51:31.999Z,10.20
2022-10-13T06:53:59.195Z,10.30
2022-10-13T06:56:28.671Z,10.30
2022-10-13T06:58:55.441Z,10.40
2022-10-13T07:01:22.260Z,10.50
2022-10-13T07:03:50.442Z,10.50
2022-10-13T07:06:18.129Z,10.60
2022-10-13T07:08:44.996Z,10.50
2022-10-13T07:11:16.362Z,10.60
2022-10-13T07:13:46.586Z,10.60
2022-10-13T07:16:14.510Z,10.80
2022-10-13T07:18:41.414Z,10.90
2022-10-13T07:21:10.865Z,11.00
2022-10-13T07:23:37.855Z,11.00
2022-10-13T07:26:10.185Z,11.00
2022-10-13T07:28:37.426Z,11.10
2022-10-13T07:31:17.940Z,11.10
2022-10-13T07:33:47.252Z,11.20
2022-10-13T07:36:14.299Z,11.30
2022-10-13T07:38:41.558Z,11.30
2022-10-13T07:41:11.161Z,11.20
2022-10-13T07:43:38.102Z,11.20
2022-10-13T07:46:06.842Z,11.20
2022-10-13T07:48:34.710Z,11.20
2022-10-13T07:51:12.243Z,11.20
2022-10-13T07:53:40.289Z,11.20
2022-10-13T07:56:11.058Z,11.20
2022-10-13T07:58:44.059Z,11.30
2022-10-13T08:01:15.447Z,11.30
2022-10-13T08:03:45.553Z,11.30
2022-10-13T08:06:17.572Z,11.30
2022-10-13T08:08:44.500Z,11.30
2022-10-13T08:11:17.363Z,11.30
2022-10-13T08:13:48.842Z,11.30
2022-10-13T08:16:15.659Z,11.40
2022-10-13T08:18:42.424Z,11.30
2022-10-13T08:21:53.329Z,11.20
2022-10-13T08:24:00.323Z,11.20
2022-10-13T08:26:28.995Z,11.30
2022-10-13T08:29:20.291Z,11.40
2022-10-13T08:31:43.565Z,11.40
2022-10-13T08:34:12.386Z,11.40
2022-10-13T08:36:39.942Z,11.40
2022-10-13T08:39:07.429Z,11.30
2022-10-13T08:41:39.439Z,11.30
2022-10-13T08:47:42.016Z,11.20
2022-10-13T08:50:19.464Z,11.40
2022-10-13T08:52:54.967Z,11.50
2022-10-13T08:56:00.093Z,11.50
2022-10-13T08:58:32.480Z,11.50
2022-10-13T09:01:02.564Z,11.40
2022-10-13T09:03:30.383Z,11.40
2022-10-13T09:06:11.770Z,11.30
2022-10-13T09:08:50.925Z,11.10
2022-10-13T09:11:17.906Z,11.10
2022-10-13T09:13:44.745Z,11.00
2022-10-13T09:16:13.214Z,10.90
2022-10-13T09:18:40.869Z,10.90
2022-10-13T09:21:26.580Z,10.90
2022-10-13T09:24:05.640Z,10.90
2022-10-13T09:26:38.305Z,10.90
2022-10-13T09:29:20.465Z,10.90
2022-10-13T09:31:49.971Z,11.00
2022-10-13T09:34:25.244Z,11.00
2022-10-13T09:36:56.095Z,11.00
2022-10-13T09:39:22.958Z,11.00
2022-10-13T09:41:50.076Z,11.20
2022-10-13T09:44:31.990Z,11.20
2022-10-13T09:47:02.144Z,11.30
2022-10-13T09:49:35.243Z,11.40
2022-10-13T09:52:28.692Z,11.50
2022-10-13T09:55:01.060Z,11.70
2022-10-13T09:57:47.296Z,11.70
2022-10-13T10:00:37.442Z,11.70
2022-10-13T10:03:19.799Z,11.70
2022-10-13T10:06:14.461Z,11.50
2022-10-13T10:09:04.141Z,11.50
2022-10-13T10:11:53.857Z,11.40
2022-10-13T10:14:36.518Z,11.50
2022-10-13T10:17:40.161Z,11.60
2022-10-13T10:20:33.234Z,11.70
2022-10-13T10:23:09.143Z,11.70
2022-10-13T10:25:51.270Z,11.70
2022-10-13T10:28:44.458Z,11.70
2022-10-13T10:31:38.470Z,11.80
2022-10-13T10:34:22.626Z,11.90
2022-10-13T10:37:15.165Z,11.90
2022-10-13T10:40:00.044Z,11.80
2022-10-13T10:42:51.131Z,11.80
2022-10-13T10:45:30.061Z,11.70
2022-10-13T10:48:05.404Z,11.70
2022-10-13T10:50:33.785Z,11.70
2022-10-13T10:53:09.499Z,11.70
2022-10-13T10:55:51.949Z,11.70
2022-10-13T10:58:29.387Z,11.80
2022-10-13T11:01:12.467Z,11.80
2022-10-13T11:03:47.753Z,11.80
2022-10-13T11:06:17.860Z,11.80
2022-10-13T11:08:47.257Z,11.80
2022-10-13T11:11:26.750Z,11.70
2022-10-13T11:13:59.609Z,11.70
2022-10-13T11:16:39.207Z,11.70
2022-10-13T11:19:36.003Z,11.70
2022-10-13T11:22:02.969Z,11.70
2022-10-13T11:24:41.865Z,11.80
2022-10-13T11:27:09.427Z,11.90
2022-10-13T11:29:57.973Z,12.00
2022-10-13T11:32:43.367Z,12.00
2022-10-13T11:35:23.870Z,12.10
2022-10-13T11:38:17.752Z,12.10
2022-10-13T11:41:12.560Z,12.10
2022-10-13T11:43:51.324Z,12.30
2022-10-13T11:46:49.317Z,12.40
2022-10-13T11:49:40.622Z,12.60
2022-10-13T11:52:29.199Z,12.90
2022-10-13T11:55:06.758Z,13.00
2022-10-13T11:57:33.682Z,13.00
2022-10-13T12:00:02.606Z,12.90
2022-10-13T12:02:30.005Z,12.80
2022-10-13T12:05:04.150Z,12.60
2022-10-13T12:07:37.361Z,12.50
2022-10-13T12:10:08.518Z,12.30
2022-10-13T12:12:35.500Z,12.30
2022-10-13T12:15:06.017Z,12.30
2022-10-13T12:17:39.228Z,12.30
2022-10-13T12:20:21.779Z,12.40
2022-10-13T12:22:49.799Z,12.80
2022-10-13T12:25:19.162Z,13.20
2022-10-13T12:27:52.679Z,13.50
2022-10-13T12:30:26.056Z,13.60
2022-10-13T12:32:55.168Z,13.70
2022-10-13T12:35:30.235Z,13.70
2022-10-13T12:38:00.589Z,13.60
2022-10-13T12:40:28.709Z,13.60
2022-10-13T12:42:56.213Z,13.60
2022-10-13T12:45:28.810Z,13.60
2022-10-13T12:47:55.943Z,13.40
2022-10-13T12:50:27.413Z,13.30
2022-10-13T12:53:09.130Z,13.30
2022-10-13T12:56:01.323Z,13.30
2022-10-13T12:58:32.964Z,13.20
2022-10-13T13:01:11.831Z,13.20
2022-10-13T13:03:40.970Z,13.20
2022-10-13T13:06:13.971Z,13.20
2022-10-13T13:08:43.674Z,13.10
2022-10-13T13:11:33.038Z,13.00
2022-10-13T13:14:24.208Z,13.10
2022-10-13T13:17:27.636Z,13.20
2022-10-13T13:20:29.861Z,13.40
2022-10-13T13:22:57.160Z,13.50
2022-10-13T13:25:25.133Z,13.70
2022-10-13T13:27:53.141Z,13.70
2022-10-13T13:30:22.572Z,13.60
2022-10-13T13:32:49.963Z,13.70
2022-10-13T13:35:17.839Z,13.70
2022-10-13T13:37:51.327Z,13.70
2022-10-13T13:40:26.196Z,13.70
2022-10-13T13:42:54.196Z,13.90
2022-10-13T13:45:25.343Z,14.00
2022-10-13T13:47:52.164Z,14.20
2022-10-13T13:50:42.685Z,14.30
2022-10-13T13:53:09.625Z,14.30
2022-10-13T13:55:36.858Z,14.40
2022-10-13T13:58:03.849Z,14.50
2022-10-13T14:00:30.608Z,14.60
2022-10-13T14:02:58.537Z,14.70
2022-10-13T14:05:25.359Z,14.60
2022-10-13T14:07:58.114Z,14.50
2022-10-13T14:10:25.992Z,14.40
2022-10-13T14:12:53.050Z,14.30
2022-10-13T14:15:19.949Z,14.30
2022-10-13T14:17:46.655Z,14.20
2022-10-13T14:20:13.902Z,14.10
2022-10-13T14:22:42.835Z,14.00
2022-10-13T14:25:10.399Z,13.70
2022-10-13T14:27:37.833Z,13.60
2022-10-13T14:30:06.650Z,13.50
2022-10-13T14:32:34.237Z,13.40
2022-10-13T14:35:01.412Z,13.30
2022-10-13T14:37:33.073Z,13.30
2022-10-13T14:40:00.549Z,13.10
2022-10-13T14:42:27.443Z,13.00
2022-10-13T14:44:55.315Z,13.00
2022-10-13T14:47:22.440Z,12.90
2022-10-13T14:49:49.539Z,12.90
2022-10-13T14:52:16.314Z,12.90
2022-10-13T14:54:45.065Z,12.80
2022-10-13T14:57:16.496Z,12.80
2022-10-13T14:59:43.437Z,12.80
2022-10-13T15:02:18.286Z,12.80
2022-10-13T15:04:45.300Z,12.90
2022-10-13T15:07:12.067Z,12.90
2022-10-13T15:09:52.400Z,12.90
2022-10-13T15:12:21.321Z,12.90
2022-10-13T15:14:48.211Z,12.90
2022-10-13T15:17:14.983Z,12.90
2022-10-13T15:19:43.061Z,12.90
2022-10-13T15:22:09.797Z,13.00
2022-10-13T15:24:36.679Z,12.90
2022-10-13T15:27:03.570Z,12.90
2022-10-13T15:29:30.335Z,12.80
2022-10-13T15:32:12.502Z,12.80
2022-10-13T15:34:40.378Z,12.70
2022-10-13T15:37:08.003Z,12.70
2022-10-13T15:39:34.856Z,12.60
2022-10-13T15:42:02.218Z,12.50
2022-10-13T15:44:30.866Z,12.50
2022-10-13T15:47:07.815Z,12.50
2022-10-13T15:49:39.941Z,12.40
2022-10-13T15:52:06.883Z,12.40
2022-10-13T15:54:36.149Z,12.40
2022-10-13T15:57:03.253Z,12.30
2022-10-13T15:59:30.407Z,12.30
2022-10-13T16:01:57.125Z,12.30
2022-10-13T16:04:23.950Z,12.20
2022-10-13T16:06:50.936Z,12.20
2022-10-13T16:09:17.650Z,12.20
2022-10-13T16:11:44.434Z,12.10
2022-10-13T16:14:11.423Z,12.00
2022-10-13T16:16:38.153Z,12.00
2022-10-13T16:19:05.181Z,11.90
2022-10-13T16:21:32.119Z,11.90
2022-10-13T16:23:59.387Z,11.90
2022-10-13T16:26:26.391Z,11.90
2022-10-13T16:28:56.870Z,11.80
2022-10-13T16:31:23.995Z,11.80
2022-10-13T16:33:50.738Z,11.80
2022-10-13T16:36:19.309Z,11.80
2022-10-13T16:38:47.698Z,11.80
2022-10-13T16:41:18.273Z,11.70
2022-10-13T16:43:46.425Z,11.70
2022-10-13T16:46:15.112Z,11.70
2022-10-13T16:48:43.511Z,11.70
2022-10-13T16:51:13.800Z,11.70
2022-10-13T16:53:42.314Z,11.70
2022-10-13T16:56:09.672Z,11.60
2022-10-13T16:58:36.636Z,11.60
2022-10-13T17:01:15.300Z,11.60
2022-10-13T17:03:44.168Z,11.50
2022-10-13T17:06:12.045Z,11.50
2022-10-13T17:08:39.100Z,11.50
2022-10-13T17:11:06.356Z,11.50
2022-10-13T17:13:35.092Z,11.50
2022-10-13T17:16:01.779Z,11.50
2022-10-13T17:18:28.805Z,11.50
2022-10-13T17:20:58.486Z,11.40
2022-10-13T17:23:28.475Z,11.40
2022-10-13T17:25:56.279Z,11.40
2022-10-13T17:28:23.959Z,11.40
2022-10-13T17:31:09.876Z,11.40
2022-10-13T17:33:38.533Z,11.40
2022-10-13T17:36:28.443Z,11.40
2022-10-13T17:38:56.840Z,11.40
2022-10-13T17:41:24.013Z,11.40
2022-10-13T17:43:52.327Z,11.30
2022-10-13T17:46:40.579Z,11.30
2022-10-13T17:49:11.397Z,11.30
2022-10-13T17:51:42.690Z,11.30
2022-10-13T17:54:15.537Z,11.20
2022-10-13T17:56:44.174Z,11.20
2022-10-13T17:59:11.083Z,11.20
2022-10-13T18:01:39.337Z,11.10
2022-10-13T18:04:11.699Z,11.10
2022-10-13T18:06:40.715Z,11.10
2022-10-13T18:09:19.235Z,11.00
2022-10-13T18:11:50.584Z,11.00
2022-10-13T18:14:38.352Z,11.00
2022-10-13T18:17:05.344Z,11.00
2022-10-13T18:19:35.403Z,11.00
2022-10-13T18:22:07.343Z,10.90
2022-10-13T18:24:35.381Z,11.00
2022-10-13T18:27:02.386Z,11.00
2022-10-13T18:29:29.488Z,11.00
2022-10-13T18:31:56.591Z,11.00
2022-10-13T18:34:23.763Z,10.90
2022-10-13T18:36:55.133Z,10.90
2022-10-13T18:39:29.190Z,10.90
2022-10-13T18:41:57.040Z,10.80
2022-10-13T18:44:25.014Z,10.80
2022-10-13T18:46:53.786Z,10.80
2022-10-13T18:49:23.202Z,10.80
2022-10-13T18:51:51.519Z,10.80
2022-10-13T18:54:18.627Z,10.80
2022-10-13T18:56:45.396Z,10.70
2022-10-13T18:59:12.594Z,10.70
2022-10-13T19:01:40.992Z,10.70
2022-10-13T19:04:08.656Z,10.80
2022-10-13T19:06:35.799Z,10.80
2022-10-13T19:09:08.686Z,10.80
2022-10-13T19:11:36.352Z,10.80
2022-10-13T19:14:04.096Z,10.80
2022-10-13T19:16:36.120Z,10.80
2022-10-13T19:19:03.215Z,10.70
2022-10-13T19:21:30.286Z,10.80
2022-10-13T19:23:59.726Z,10.80
2022-10-13T19:26:30.889Z,10.70
2022-10-13T19:29:03.785Z,10.70
2022-10-13T19:31:32.465Z,10.70
2022-10-13T19:34:00.435Z,10.70
2022-10-13T19:36:34.222Z,10.70
2022-10-13T19:39:04.900Z,10.70
2022-10-13T19:41:32.412Z,10.70
2022-10-13T19:44:00.079Z,10.60
2022-10-13T19:46:26.790Z,10.60
2022-10-13T19:48:54.466Z,10.50
2022-10-13T19:51:21.349Z,10.40
2022-10-13T19:53:48.541Z,10.30
2022-10-13T19:56:24.404Z,10.30
2022-10-13T19:58:51.984Z,10.30
2022-10-13T20:01:19.921Z,10.20
2022-10-13T20:03:47.603Z,10.30
2022-10-13T20:06:14.905Z,10.20
2022-10-13T20:08:41.742Z,10.20
2022-10-13T20:11:10.946Z,10.30
2022-10-13T20:13:38.021Z,10.20
2022-10-13T20:16:13.834Z,10.30
2022-10-13T20:18:41.511Z,10.30
2022-10-13T20:21:20.256Z,10.30
2022-10-13T20:23:48.598Z,10.20
2022-10-13T20:26:15.645Z,10.30
2022-10-13T20:28:46.834Z,10.20
2022-10-13T20:31:15.508Z,10.20
2022-10-13T20:33:42.854Z,10.20
2022-10-13T20:36:16.482Z,10.30
2022-10-13T20:38:43.285Z,10.20
2022-10-13T20:41:17.774Z,10.20
2022-10-13T20:43:47.488Z,10.20
2022-10-13T20:46:16.271Z,10.20
2022-10-13T20:49:09.212Z,10.20
2022-10-13T20:51:32.039Z,10.20
2022-10-13T20:53:58.779Z,10.20
2022-10-13T20:56:26.690Z,10.20
2022-10-13T20:58:54.148Z,10.20
2022-10-13T21:01:22.461Z,10.30
2022-10-13T21:03:54.349Z,10.20
2022-10-13T21:06:22.849Z,10.20
2022-10-13T21:08:49.789Z,10.20
2022-10-13T21:11:18.554Z,10.20
2022-10-13T21:13:46.162Z,10.20
2022-10-13T21:16:36.771Z,10.20
2022-10-13T21:19:04.303Z,10.20
2022-10-13T21:21:34.717Z,10.20
2022-10-13T21:24:04.856Z,10.20
2022-10-13T21:26:33.268Z,10.20
2022-10-13T21:29:02.628Z,10.20
2022-10-13T21:31:29.839Z,10.30
2022-10-13T21:33:56.933Z,10.30
2022-10-13T21:36:26.821Z,10.30
2022-10-13T21:39:00.601Z,10.30
2022-10-13T21:41:28.421Z,10.30
2022-10-13T21:43:55.698Z,10.30
2022-10-13T21:46:25.834Z,10.40
2022-10-13T21:48:58.126Z,10.40
2022-10-13T21:51:27.352Z,10.30
2022-10-13T21:53:56.535Z,10.40
2022-10-13T21:56:25.573Z,10.40
2022-10-13T21:58:52.974Z,10.40
2022-10-13T22:01:20.774Z,10.40
2022-10-13T22:03:48.959Z,10.40
2022-10-13T22:06:19.347Z,10.40
2022-10-13T22:08:49.278Z,10.40
2022-10-13T22:11:17.075Z,10.50
2022-10-13T22:13:43.878Z,10.50
2022-10-13T22:16:14.683Z,10.50
2022-10-13T22:18:42.651Z,10.50
2022-10-13T22:21:17.247Z,10.40
2022-10-13T22:23:44.775Z,10.40
2022-10-13T22:26:12.083Z,10.40
2022-10-13T22:28:40.153Z,10.40
2022-10-13T22:31:09.432Z,10.40
2022-10-13T22:33:38.510Z,10.40
2022-10-13T22:36:19.582Z,10.40
2022-10-13T22:38:48.295Z,10.40
2022-10-13T22:41:17.653Z,10.40
2022-10-13T22:43:45.161Z,10.40
2022-10-13T22:46:13.629Z,10.40
2022-10-13T22:48:41.687Z,10.40
2022-10-13T22:51:10.306Z,10.40
2022-10-13T22:53:41.206Z,10.40
2022-10-13T22:56:11.734Z,10.40
2022-10-13T22:58:41.040Z,10.40
2022-10-13T23:01:13.450Z,10.30
2022-10-13T23:03:41.508Z,10.30
2022-10-13T23:06:13.695Z,10.30
2022-10-13T23:08:40.614Z,10.30
2022-10-13T23:11:08.146Z,10.20
2022-10-13T23:13:35.410Z,10.20
2022-10-13T23:16:14.552Z,10.20
2022-10-13T23:18:41.295Z,10.10
2022-10-13T23:21:18.178Z,10.20
2022-10-13T23:23:45.092Z,10.20
2022-10-13T23:26:17.784Z,10.20
2022-10-13T23:28:44.792Z,10.10
2022-10-13T23:31:15.696Z,10.10
2022-10-13T23:33:43.330Z,10.10
2022-10-13T23:36:16.747Z,10.10
2022-10-13T23:38:43.788Z,10.00
2022-10-13T23:41:13.366Z,10.10
2022-10-13T23:43:40.959Z,10.00
2022-10-13T23:46:08.404Z,10.00
2022-10-13T23:48:35.046Z,10.00
2022-10-13T23:51:07.128Z,10.00
2022-10-13T23:53:35.575Z,10.00
2022-10-13T23:56:06.654Z,10.00
2022-10-13T23:58:38.416Z,10.00
